sensor_id;sensor_type;location;lat;lon;timestamp;P1;durP1;ratioP1;P2;durP2;ratioP2
62509;SDS011;48558;48.242;11.654;2023-07-31T00:03:04;1.60;;;1.40;;
62509;SDS011;48558;48.242;11.654;2023-07-31T00:07:16;1.63;;;1.40;;
62509;SDS011;48558;48.242;11.654;2023-07-31T00:11:30;3.92;;;1.42;;
62509;SDS011;48558;48.242;11.654;2023-07-31T00:15:42;4.63;;;1.00;;
62509;SDS011;48558;48.242;11.654;2023-07-31T00:19:55;3.55;;;1.52;;
62509;SDS011;48558;48.242;11.654;2023-07-31T00:24:07;1.75;;;1.52;;
62509;SDS011;48558;48.242;11.654;2023-07-31T00:28:20;2.10;;;1.33;;
62509;SDS011;48558;48.242;11.654;2023-07-31T00:32:32;1.13;;;1.05;;
62509;SDS011;48558;48.242;11.654;2023-07-31T00:36:45;3.90;;;1.63;;
62509;SDS011;48558;48.242;11.654;2023-07-31T00:40:57;1.42;;;1.33;;
62509;SDS011;48558;48.242;11.654;2023-07-31T00:45:10;1.45;;;1.35;;
62509;SDS011;48558;48.242;11.654;2023-07-31T00:49:23;1.63;;;1.40;;
62509;SDS011;48558;48.242;11.654;2023-07-31T00:53:35;2.03;;;1.48;;
62509;SDS011;48558;48.242;11.654;2023-07-31T00:57:48;1.88;;;1.35;;
62509;SDS011;48558;48.242;11.654;2023-07-31T01:02:02;1.92;;;1.30;;
62509;SDS011;48558;48.242;11.654;2023-07-31T01:10:41;4.22;;;1.30;;
62509;SDS011;48558;48.242;11.654;2023-07-31T01:19:23;1.52;;;1.40;;
62509;SDS011;48558;48.242;11.654;2023-07-31T01:33:11;1.02;;;1.02;;
62509;SDS011;48558;48.242;11.654;2023-07-31T01:37:28;2.38;;;1.30;;
62509;SDS011;48558;48.242;11.654;2023-07-31T01:41:42;5.13;;;1.53;;
62509;SDS011;48558;48.242;11.654;2023-07-31T01:45:54;2.85;;;1.50;;
62509;SDS011;48558;48.242;11.654;2023-07-31T01:50:07;3.30;;;1.92;;
62509;SDS011;48558;48.242;11.654;2023-07-31T01:54:20;1.85;;;1.58;;
62509;SDS011;48558;48.242;11.654;2023-07-31T01:58:33;2.78;;;1.42;;
62509;SDS011;48558;48.242;11.654;2023-07-31T02:02:45;3.03;;;1.67;;
62509;SDS011;48558;48.242;11.654;2023-07-31T02:06:58;3.42;;;1.33;;
62509;SDS011;48558;48.242;11.654;2023-07-31T02:11:10;2.53;;;1.50;;
62509;SDS011;48558;48.242;11.654;2023-07-31T02:15:23;1.90;;;1.42;;
62509;SDS011;48558;48.242;11.654;2023-07-31T02:19:35;2.63;;;1.42;;
62509;SDS011;48558;48.242;11.654;2023-07-31T02:23:48;2.05;;;1.50;;
62509;SDS011;48558;48.242;11.654;2023-07-31T02:28:01;3.08;;;1.45;;
62509;SDS011;48558;48.242;11.654;2023-07-31T02:32:13;1.95;;;1.45;;
62509;SDS011;48558;48.242;11.654;2023-07-31T02:36:26;7.88;;;1.40;;
62509;SDS011;48558;48.242;11.654;2023-07-31T02:40:39;6.10;;;1.70;;
62509;SDS011;48558;48.242;11.654;2023-07-31T02:44:55;1.42;;;1.33;;
62509;SDS011;48558;48.242;11.654;2023-07-31T02:49:08;2.05;;;1.40;;
62509;SDS011;48558;48.242;11.654;2023-07-31T02:53:20;1.35;;;1.25;;
62509;SDS011;48558;48.242;11.654;2023-07-31T02:57:34;1.40;;;1.30;;
62509;SDS011;48558;48.242;11.654;2023-07-31T03:01:46;1.60;;;1.50;;
62509;SDS011;48558;48.242;11.654;2023-07-31T03:05:59;1.65;;;1.20;;
62509;SDS011;48558;48.242;11.654;2023-07-31T03:10:11;3.83;;;1.42;;
62509;SDS011;48558;48.242;11.654;2023-07-31T03:14:24;1.98;;;1.65;;
62509;SDS011;48558;48.242;11.654;2023-07-31T03:18:38;1.50;;;1.40;;
62509;SDS011;48558;48.242;11.654;2023-07-31T03:22:51;3.60;;;1.42;;
62509;SDS011;48558;48.242;11.654;2023-07-31T03:27:03;4.95;;;1.42;;
62509;SDS011;48558;48.242;11.654;2023-07-31T03:31:16;3.60;;;1.75;;
62509;SDS011;48558;48.242;11.654;2023-07-31T03:35:29;5.50;;;2.10;;
62509;SDS011;48558;48.242;11.654;2023-07-31T03:39:41;1.70;;;1.60;;
62509;SDS011;48558;48.242;11.654;2023-07-31T03:43:54;5.75;;;1.95;;
62509;SDS011;48558;48.242;11.654;2023-07-31T03:48:08;2.35;;;1.60;;
62509;SDS011;48558;48.242;11.654;2023-07-31T03:52:21;3.97;;;1.73;;
62509;SDS011;48558;48.242;11.654;2023-07-31T03:56:33;2.92;;;1.73;;
62509;SDS011;48558;48.242;11.654;2023-07-31T04:00:47;9.07;;;1.75;;
62509;SDS011;48558;48.242;11.654;2023-07-31T04:04:59;4.47;;;1.73;;
62509;SDS011;48558;48.242;11.654;2023-07-31T04:09:12;3.20;;;1.67;;
62509;SDS011;48558;48.242;11.654;2023-07-31T04:13:24;2.53;;;1.80;;
62509;SDS011;48558;48.242;11.654;2023-07-31T04:17:39;1.98;;;1.77;;
62509;SDS011;48558;48.242;11.654;2023-07-31T04:21:52;4.07;;;1.58;;
62509;SDS011;48558;48.242;11.654;2023-07-31T04:26:04;3.40;;;1.60;;
62509;SDS011;48558;48.242;11.654;2023-07-31T04:30:17;2.00;;;1.60;;
62509;SDS011;48558;48.242;11.654;2023-07-31T04:34:29;4.30;;;1.80;;
62509;SDS011;48558;48.242;11.654;2023-07-31T04:38:42;2.70;;;2.05;;
62509;SDS011;48558;48.242;11.654;2023-07-31T04:42:55;4.28;;;1.67;;
62509;SDS011;48558;48.242;11.654;2023-07-31T04:47:07;2.13;;;1.70;;
62509;SDS011;48558;48.242;11.654;2023-07-31T04:51:20;3.30;;;2.00;;
62509;SDS011;48558;48.242;11.654;2023-07-31T04:55:33;2.30;;;1.55;;
62509;SDS011;48558;48.242;11.654;2023-07-31T04:59:46;2.65;;;1.52;;
62509;SDS011;48558;48.242;11.654;2023-07-31T05:04:01;1.92;;;1.73;;
62509;SDS011;48558;48.242;11.654;2023-07-31T05:08:14;3.95;;;2.22;;
62509;SDS011;48558;48.242;11.654;2023-07-31T05:12:29;3.65;;;2.10;;
62509;SDS011;48558;48.242;11.654;2023-07-31T05:16:42;1.67;;;1.58;;
62509;SDS011;48558;48.242;11.654;2023-07-31T05:20:55;3.00;;;1.83;;
62509;SDS011;48558;48.242;11.654;2023-07-31T05:25:08;5.07;;;1.70;;
62509;SDS011;48558;48.242;11.654;2023-07-31T05:29:21;2.50;;;1.58;;
62509;SDS011;48558;48.242;11.654;2023-07-31T05:33:33;5.18;;;1.88;;
62509;SDS011;48558;48.242;11.654;2023-07-31T05:37:46;4.35;;;1.90;;
62509;SDS011;48558;48.242;11.654;2023-07-31T05:41:58;2.28;;;1.67;;
62509;SDS011;48558;48.242;11.654;2023-07-31T05:46:11;2.13;;;1.70;;
62509;SDS011;48558;48.242;11.654;2023-07-31T05:50:24;3.75;;;1.55;;
62509;SDS011;48558;48.242;11.654;2023-07-31T05:54:36;3.30;;;1.60;;
62509;SDS011;48558;48.242;11.654;2023-07-31T05:58:49;2.05;;;1.42;;
62509;SDS011;48558;48.242;11.654;2023-07-31T06:03:02;4.65;;;1.67;;
62509;SDS011;48558;48.242;11.654;2023-07-31T06:07:15;1.58;;;1.48;;
62509;SDS011;48558;48.242;11.654;2023-07-31T06:11:28;2.45;;;1.30;;
62509;SDS011;48558;48.242;11.654;2023-07-31T06:15:40;1.90;;;1.63;;
62509;SDS011;48558;48.242;11.654;2023-07-31T06:19:58;2.72;;;1.67;;
62509;SDS011;48558;48.242;11.654;2023-07-31T06:24:10;2.10;;;1.80;;
62509;SDS011;48558;48.242;11.654;2023-07-31T06:28:30;2.00;;;1.42;;
62509;SDS011;48558;48.242;11.654;2023-07-31T06:32:44;2.47;;;1.55;;
62509;SDS011;48558;48.242;11.654;2023-07-31T06:36:56;2.50;;;2.15;;
62509;SDS011;48558;48.242;11.654;2023-07-31T06:41:09;3.03;;;1.50;;
62509;SDS011;48558;48.242;11.654;2023-07-31T06:45:22;1.63;;;1.50;;
62509;SDS011;48558;48.242;11.654;2023-07-31T06:49:35;2.78;;;1.48;;
62509;SDS011;48558;48.242;11.654;2023-07-31T06:53:47;2.22;;;1.60;;
62509;SDS011;48558;48.242;11.654;2023-07-31T06:58:00;2.80;;;1.35;;
62509;SDS011;48558;48.242;11.654;2023-07-31T07:02:12;3.00;;;1.55;;
62509;SDS011;48558;48.242;11.654;2023-07-31T07:06:25;1.75;;;1.58;;
62509;SDS011;48558;48.242;11.654;2023-07-31T07:10:38;1.58;;;1.48;;
62509;SDS011;48558;48.242;11.654;2023-07-31T07:14:53;1.63;;;1.50;;
62509;SDS011;48558;48.242;11.654;2023-07-31T07:19:05;2.13;;;1.40;;
62509;SDS011;48558;48.242;11.654;2023-07-31T07:23:18;5.03;;;1.58;;
62509;SDS011;48558;48.242;11.654;2023-07-31T07:27:31;2.08;;;1.42;;
62509;SDS011;48558;48.242;11.654;2023-07-31T07:31:44;1.55;;;1.40;;
62509;SDS011;48558;48.242;11.654;2023-07-31T07:35:59;1.60;;;1.50;;
62509;SDS011;48558;48.242;11.654;2023-07-31T07:40:14;1.95;;;1.50;;
62509;SDS011;48558;48.242;11.654;2023-07-31T07:44:26;1.60;;;1.33;;
62509;SDS011;48558;48.242;11.654;2023-07-31T07:48:39;2.00;;;1.40;;
62509;SDS011;48558;48.242;11.654;2023-07-31T07:52:51;3.28;;;1.30;;
62509;SDS011;48558;48.242;11.654;2023-07-31T07:57:04;1.35;;;1.20;;
62509;SDS011;48558;48.242;11.654;2023-07-31T08:01:16;2.97;;;1.30;;
62509;SDS011;48558;48.242;11.654;2023-07-31T08:05:29;3.28;;;1.48;;
62509;SDS011;48558;48.242;11.654;2023-07-31T08:09:46;2.92;;;1.50;;
62509;SDS011;48558;48.242;11.654;2023-07-31T08:13:58;4.90;;;1.58;;
62509;SDS011;48558;48.242;11.654;2023-07-31T08:18:11;1.42;;;1.33;;
62509;SDS011;48558;48.242;11.654;2023-07-31T08:22:24;2.45;;;1.38;;
62509;SDS011;48558;48.242;11.654;2023-07-31T08:26:38;1.63;;;1.20;;
62509;SDS011;48558;48.242;11.654;2023-07-31T08:30:51;1.33;;;1.23;;
62509;SDS011;48558;48.242;11.654;2023-07-31T08:35:04;4.65;;;1.63;;
62509;SDS011;48558;48.242;11.654;2023-07-31T08:39:16;2.05;;;1.30;;
62509;SDS011;48558;48.242;11.654;2023-07-31T08:43:29;3.28;;;1.55;;
62509;SDS011;48558;48.242;11.654;2023-07-31T08:47:44;1.60;;;1.10;;
62509;SDS011;48558;48.242;11.654;2023-07-31T08:51:59;1.13;;;1.00;;
62509;SDS011;48558;48.242;11.654;2023-07-31T08:56:11;2.78;;;1.50;;
62509;SDS011;48558;48.242;11.654;2023-07-31T09:00:27;3.13;;;1.40;;
62509;SDS011;48558;48.242;11.654;2023-07-31T09:04:40;2.10;;;1.20;;
62509;SDS011;48558;48.242;11.654;2023-07-31T09:08:53;2.47;;;1.23;;
62509;SDS011;48558;48.242;11.654;2023-07-31T09:13:06;2.33;;;2.13;;
62509;SDS011;48558;48.242;11.654;2023-07-31T09:17:58;3.63;;;2.78;;
62509;SDS011;48558;48.242;11.654;2023-07-31T09:22:11;4.40;;;1.52;;
62509;SDS011;48558;48.242;11.654;2023-07-31T09:30:47;2.40;;;1.40;;
62509;SDS011;48558;48.242;11.654;2023-07-31T09:35:13;3.58;;;1.38;;
62509;SDS011;48558;48.242;11.654;2023-07-31T09:39:48;1.70;;;1.20;;
62509;SDS011;48558;48.242;11.654;2023-07-31T09:44:06;2.78;;;1.50;;
62509;SDS011;48558;48.242;11.654;2023-07-31T09:48:19;1.30;;;1.20;;
62509;SDS011;48558;48.242;11.654;2023-07-31T09:52:32;4.78;;;1.30;;
62509;SDS011;48558;48.242;11.654;2023-07-31T09:56:48;1.55;;;1.20;;
62509;SDS011;48558;48.242;11.654;2023-07-31T10:01:01;2.60;;;1.55;;
62509;SDS011;48558;48.242;11.654;2023-07-31T10:05:15;1.88;;;1.30;;
62509;SDS011;48558;48.242;11.654;2023-07-31T10:09:28;3.40;;;1.80;;
62509;SDS011;48558;48.242;11.654;2023-07-31T10:13:43;3.70;;;1.30;;
62509;SDS011;48558;48.242;11.654;2023-07-31T10:17:56;3.25;;;1.65;;
62509;SDS011;48558;48.242;11.654;2023-07-31T10:22:10;1.80;;;1.40;;
62509;SDS011;48558;48.242;11.654;2023-07-31T10:26:24;1.83;;;1.25;;
62509;SDS011;48558;48.242;11.654;2023-07-31T10:30:37;2.35;;;1.73;;
62509;SDS011;48558;48.242;11.654;2023-07-31T10:34:51;4.40;;;1.38;;
62509;SDS011;48558;48.242;11.654;2023-07-31T10:39:04;1.13;;;1.05;;
62509;SDS011;48558;48.242;11.654;2023-07-31T10:43:54;1.58;;;1.48;;
62509;SDS011;48558;48.242;11.654;2023-07-31T10:48:13;2.90;;;1.67;;
62509;SDS011;48558;48.242;11.654;2023-07-31T10:52:27;1.75;;;1.27;;
62509;SDS011;48558;48.242;11.654;2023-07-31T10:56:49;2.45;;;1.50;;
62509;SDS011;48558;48.242;11.654;2023-07-31T11:01:03;4.55;;;1.50;;
62509;SDS011;48558;48.242;11.654;2023-07-31T11:05:18;2.25;;;1.50;;
62509;SDS011;48558;48.242;11.654;2023-07-31T11:09:34;3.60;;;1.30;;
62509;SDS011;48558;48.242;11.654;2023-07-31T11:13:48;3.65;;;1.50;;
62509;SDS011;48558;48.242;11.654;2023-07-31T11:18:04;3.15;;;1.48;;
62509;SDS011;48558;48.242;11.654;2023-07-31T11:22:20;1.60;;;1.50;;
62509;SDS011;48558;48.242;11.654;2023-07-31T11:26:33;2.22;;;1.48;;
62509;SDS011;48558;48.242;11.654;2023-07-31T11:30:45;1.40;;;1.30;;
62509;SDS011;48558;48.242;11.654;2023-07-31T11:34:58;1.88;;;1.40;;
62509;SDS011;48558;48.242;11.654;2023-07-31T11:39:11;1.60;;;1.40;;
62509;SDS011;48558;48.242;11.654;2023-07-31T11:43:23;3.33;;;1.58;;
62509;SDS011;48558;48.242;11.654;2023-07-31T11:47:37;2.38;;;1.20;;
62509;SDS011;48558;48.242;11.654;2023-07-31T11:51:50;2.45;;;1.50;;
62509;SDS011;48558;48.242;11.654;2023-07-31T11:56:03;7.00;;;1.67;;
62509;SDS011;48558;48.242;11.654;2023-07-31T12:00:17;2.75;;;1.40;;
62509;SDS011;48558;48.242;11.654;2023-07-31T12:04:30;3.10;;;1.30;;
62509;SDS011;48558;48.242;11.654;2023-07-31T12:08:43;4.68;;;1.60;;
62509;SDS011;48558;48.242;11.654;2023-07-31T12:13:39;2.88;;;1.85;;
62509;SDS011;48558;48.242;11.654;2023-07-31T12:17:38;1.40;;;1.30;;
62509;SDS011;48558;48.242;11.654;2023-07-31T12:21:51;2.13;;;1.60;;
62509;SDS011;48558;48.242;11.654;2023-07-31T12:26:07;1.33;;;1.20;;
62509;SDS011;48558;48.242;11.654;2023-07-31T12:30:28;2.03;;;1.40;;
62509;SDS011;48558;48.242;11.654;2023-07-31T12:34:47;1.73;;;1.40;;
62509;SDS011;48558;48.242;11.654;2023-07-31T12:39:00;1.40;;;1.30;;
62509;SDS011;48558;48.242;11.654;2023-07-31T12:43:13;2.97;;;1.50;;
62509;SDS011;48558;48.242;11.654;2023-07-31T12:47:25;4.00;;;1.58;;
62509;SDS011;48558;48.242;11.654;2023-07-31T12:51:38;1.25;;;1.20;;
62509;SDS011;48558;48.242;11.654;2023-07-31T12:55:50;2.47;;;1.50;;
62509;SDS011;48558;48.242;11.654;2023-07-31T13:00:03;1.85;;;1.10;;
62509;SDS011;48558;48.242;11.654;2023-07-31T13:04:16;1.27;;;1.20;;
62509;SDS011;48558;48.242;11.654;2023-07-31T13:08:29;1.45;;;1.35;;
62509;SDS011;48558;48.242;11.654;2023-07-31T13:12:41;2.53;;;1.55;;
62509;SDS011;48558;48.242;11.654;2023-07-31T13:16:54;3.20;;;1.60;;
62509;SDS011;48558;48.242;11.654;2023-07-31T13:21:06;2.10;;;1.38;;
62509;SDS011;48558;48.242;11.654;2023-07-31T13:25:19;4.32;;;1.70;;
62509;SDS011;48558;48.242;11.654;2023-07-31T13:29:31;7.38;;;1.60;;
62509;SDS011;48558;48.242;11.654;2023-07-31T13:33:44;2.25;;;1.40;;
62509;SDS011;48558;48.242;11.654;2023-07-31T13:37:57;4.32;;;1.40;;
62509;SDS011;48558;48.242;11.654;2023-07-31T13:42:09;1.70;;;1.40;;
62509;SDS011;48558;48.242;11.654;2023-07-31T13:46:23;1.30;;;1.20;;
62509;SDS011;48558;48.242;11.654;2023-07-31T13:50:37;6.28;;;1.55;;
62509;SDS011;48558;48.242;11.654;2023-07-31T13:54:50;1.40;;;1.30;;
62509;SDS011;48558;48.242;11.654;2023-07-31T13:59:02;4.45;;;1.58;;
62509;SDS011;48558;48.242;11.654;2023-07-31T14:03:15;3.05;;;1.38;;
62509;SDS011;48558;48.242;11.654;2023-07-31T14:07:27;2.83;;;1.30;;
62509;SDS011;48558;48.242;11.654;2023-07-31T14:11:40;3.95;;;1.60;;
62509;SDS011;48558;48.242;11.654;2023-07-31T14:15:53;2.38;;;1.50;;
62509;SDS011;48558;48.242;11.654;2023-07-31T14:20:06;6.55;;;1.65;;
62509;SDS011;48558;48.242;11.654;2023-07-31T14:24:19;2.78;;;2.00;;
62509;SDS011;48558;48.242;11.654;2023-07-31T14:28:32;2.53;;;1.88;;
62509;SDS011;48558;48.242;11.654;2023-07-31T14:32:44;1.80;;;1.48;;
62509;SDS011;48558;48.242;11.654;2023-07-31T14:36:57;1.77;;;1.48;;
62509;SDS011;48558;48.242;11.654;2023-07-31T14:41:10;3.08;;;1.40;;
62509;SDS011;48558;48.242;11.654;2023-07-31T14:45:22;4.60;;;1.50;;
62509;SDS011;48558;48.242;11.654;2023-07-31T14:49:35;2.15;;;1.55;;
62509;SDS011;48558;48.242;11.654;2023-07-31T14:53:47;2.38;;;1.88;;
62509;SDS011;48558;48.242;11.654;2023-07-31T14:58:00;1.98;;;1.88;;
62509;SDS011;48558;48.242;11.654;2023-07-31T15:02:12;1.83;;;1.55;;
62509;SDS011;48558;48.242;11.654;2023-07-31T15:06:26;2.72;;;1.70;;
62509;SDS011;48558;48.242;11.654;2023-07-31T15:10:38;2.75;;;1.45;;
62509;SDS011;48558;48.242;11.654;2023-07-31T15:14:51;1.70;;;1.60;;
62509;SDS011;48558;48.242;11.654;2023-07-31T15:19:04;1.63;;;1.52;;
62509;SDS011;48558;48.242;11.654;2023-07-31T15:23:16;3.05;;;1.58;;
62509;SDS011;48558;48.242;11.654;2023-07-31T15:27:30;3.85;;;1.80;;
62509;SDS011;48558;48.242;11.654;2023-07-31T15:31:42;2.50;;;1.60;;
62509;SDS011;48558;48.242;11.654;2023-07-31T15:35:55;2.85;;;1.50;;
62509;SDS011;48558;48.242;11.654;2023-07-31T15:40:09;4.63;;;1.42;;
62509;SDS011;48558;48.242;11.654;2023-07-31T15:44:22;3.45;;;2.00;;
62509;SDS011;48558;48.242;11.654;2023-07-31T15:48:35;5.25;;;1.92;;
62509;SDS011;48558;48.242;11.654;2023-07-31T15:52:47;3.45;;;2.05;;
62509;SDS011;48558;48.242;11.654;2023-07-31T15:57:00;6.43;;;2.00;;
62509;SDS011;48558;48.242;11.654;2023-07-31T16:01:12;3.25;;;1.77;;
62509;SDS011;48558;48.242;11.654;2023-07-31T16:05:25;2.00;;;1.70;;
62509;SDS011;48558;48.242;11.654;2023-07-31T16:09:37;1.75;;;1.65;;
62509;SDS011;48558;48.242;11.654;2023-07-31T16:13:50;1.70;;;1.50;;
62509;SDS011;48558;48.242;11.654;2023-07-31T16:18:02;2.35;;;1.85;;
62509;SDS011;48558;48.242;11.654;2023-07-31T16:22:15;2.60;;;2.13;;
62509;SDS011;48558;48.242;11.654;2023-07-31T16:26:28;7.00;;;1.85;;
62509;SDS011;48558;48.242;11.654;2023-07-31T16:30:41;3.38;;;2.08;;
62509;SDS011;48558;48.242;11.654;2023-07-31T16:34:54;5.38;;;1.95;;
62509;SDS011;48558;48.242;11.654;2023-07-31T16:39:06;4.07;;;2.10;;
62509;SDS011;48558;48.242;11.654;2023-07-31T16:43:19;2.65;;;2.10;;
62509;SDS011;48558;48.242;11.654;2023-07-31T16:47:31;2.47;;;2.10;;
62509;SDS011;48558;48.242;11.654;2023-07-31T16:51:44;4.30;;;1.85;;
62509;SDS011;48558;48.242;11.654;2023-07-31T16:55:56;2.60;;;1.95;;
62509;SDS011;48558;48.242;11.654;2023-07-31T17:00:10;3.55;;;1.85;;
62509;SDS011;48558;48.242;11.654;2023-07-31T17:04:24;2.38;;;2.15;;
62509;SDS011;48558;48.242;11.654;2023-07-31T17:08:36;2.75;;;2.20;;
62509;SDS011;48558;48.242;11.654;2023-07-31T17:12:49;2.72;;;2.05;;
62509;SDS011;48558;48.242;11.654;2023-07-31T17:17:02;4.22;;;2.30;;
62509;SDS011;48558;48.242;11.654;2023-07-31T17:21:14;1.80;;;1.70;;
62509;SDS011;48558;48.242;11.654;2023-07-31T17:25:28;6.93;;;2.80;;
62509;SDS011;48558;48.242;11.654;2023-07-31T17:29:40;2.78;;;2.42;;
62509;SDS011;48558;48.242;11.654;2023-07-31T17:33:53;3.25;;;2.10;;
62509;SDS011;48558;48.242;11.654;2023-07-31T17:38:06;2.67;;;1.95;;
62509;SDS011;48558;48.242;11.654;2023-07-31T17:42:19;2.45;;;2.20;;
62509;SDS011;48558;48.242;11.654;2023-07-31T17:46:31;5.40;;;1.88;;
62509;SDS011;48558;48.242;11.654;2023-07-31T17:50:50;2.58;;;1.90;;
62509;SDS011;48558;48.242;11.654;2023-07-31T17:55:04;4.15;;;2.38;;
62509;SDS011;48558;48.242;11.654;2023-07-31T17:59:17;2.38;;;1.88;;
62509;SDS011;48558;48.242;11.654;2023-07-31T18:03:30;2.10;;;1.90;;
62509;SDS011;48558;48.242;11.654;2023-07-31T18:07:43;4.40;;;1.80;;
62509;SDS011;48558;48.242;11.654;2023-07-31T18:11:56;2.00;;;1.80;;
62509;SDS011;48558;48.242;11.654;2023-07-31T18:16:09;6.82;;;2.10;;
62509;SDS011;48558;48.242;11.654;2023-07-31T18:20:22;2.28;;;1.90;;
62509;SDS011;48558;48.242;11.654;2023-07-31T18:24:34;2.60;;;1.88;;
62509;SDS011;48558;48.242;11.654;2023-07-31T18:28:47;3.78;;;1.83;;
62509;SDS011;48558;48.242;11.654;2023-07-31T18:33:01;3.28;;;2.10;;
62509;SDS011;48558;48.242;11.654;2023-07-31T18:37:13;3.55;;;1.92;;
62509;SDS011;48558;48.242;11.654;2023-07-31T18:41:26;2.55;;;2.22;;
62509;SDS011;48558;48.242;11.654;2023-07-31T18:45:39;3.42;;;1.90;;
62509;SDS011;48558;48.242;11.654;2023-07-31T18:49:51;2.53;;;2.20;;
62509;SDS011;48558;48.242;11.654;2023-07-31T18:54:04;2.35;;;1.90;;
62509;SDS011;48558;48.242;11.654;2023-07-31T18:58:17;3.90;;;2.10;;
62509;SDS011;48558;48.242;11.654;2023-07-31T19:02:29;3.03;;;2.00;;
62509;SDS011;48558;48.242;11.654;2023-07-31T19:06:42;3.75;;;2.17;;
62509;SDS011;48558;48.242;11.654;2023-07-31T19:10:54;6.65;;;2.17;;
62509;SDS011;48558;48.242;11.654;2023-07-31T19:15:07;3.22;;;2.00;;
62509;SDS011;48558;48.242;11.654;2023-07-31T19:19:22;6.57;;;2.13;;
62509;SDS011;48558;48.242;11.654;2023-07-31T19:23:35;6.05;;;2.03;;
62509;SDS011;48558;48.242;11.654;2023-07-31T19:27:48;4.00;;;2.00;;
62509;SDS011;48558;48.242;11.654;2023-07-31T19:36:20;4.72;;;2.25;;
62509;SDS011;48558;48.242;11.654;2023-07-31T19:40:32;5.47;;;2.22;;
62509;SDS011;48558;48.242;11.654;2023-07-31T19:44:45;3.67;;;2.08;;
62509;SDS011;48558;48.242;11.654;2023-07-31T19:48:58;4.20;;;2.13;;
62509;SDS011;48558;48.242;11.654;2023-07-31T19:53:11;4.20;;;1.98;;
62509;SDS011;48558;48.242;11.654;2023-07-31T19:57:24;5.70;;;2.40;;
62509;SDS011;48558;48.242;11.654;2023-07-31T20:01:36;5.20;;;2.30;;
62509;SDS011;48558;48.242;11.654;2023-07-31T20:05:52;2.83;;;2.35;;
62509;SDS011;48558;48.242;11.654;2023-07-31T20:10:05;5.90;;;2.60;;
62509;SDS011;48558;48.242;11.654;2023-07-31T20:14:18;3.20;;;1.98;;
62509;SDS011;48558;48.242;11.654;2023-07-31T20:18:30;2.35;;;2.15;;
62509;SDS011;48558;48.242;11.654;2023-07-31T20:22:43;2.80;;;2.10;;
62509;SDS011;48558;48.242;11.654;2023-07-31T20:26:56;4.95;;;2.05;;
62509;SDS011;48558;48.242;11.654;2023-07-31T20:31:08;3.97;;;2.22;;
62509;SDS011;48558;48.242;11.654;2023-07-31T20:35:21;6.93;;;2.25;;
62509;SDS011;48558;48.242;11.654;2023-07-31T20:39:34;2.85;;;2.08;;
62509;SDS011;48558;48.242;11.654;2023-07-31T20:43:46;4.25;;;2.28;;
62509;SDS011;48558;48.242;11.654;2023-07-31T20:47:59;4.45;;;2.67;;
62509;SDS011;48558;48.242;11.654;2023-07-31T20:52:12;2.60;;;2.33;;
62509;SDS011;48558;48.242;11.654;2023-07-31T20:56:24;4.40;;;2.65;;
62509;SDS011;48558;48.242;11.654;2023-07-31T21:00:37;2.10;;;2.00;;
62509;SDS011;48558;48.242;11.654;2023-07-31T21:04:51;4.97;;;2.50;;
62509;SDS011;48558;48.242;11.654;2023-07-31T21:09:04;5.47;;;2.47;;
62509;SDS011;48558;48.242;11.654;2023-07-31T21:13:17;8.65;;;2.15;;
62509;SDS011;48558;48.242;11.654;2023-07-31T21:17:30;2.92;;;2.40;;
62509;SDS011;48558;48.242;11.654;2023-07-31T21:21:42;7.40;;;2.78;;
62509;SDS011;48558;48.242;11.654;2023-07-31T21:25:55;3.22;;;2.22;;
62509;SDS011;48558;48.242;11.654;2023-07-31T21:30:07;2.97;;;2.40;;
62509;SDS011;48558;48.242;11.654;2023-07-31T21:34:20;4.15;;;2.35;;
62509;SDS011;48558;48.242;11.654;2023-07-31T21:38:33;6.40;;;2.45;;
62509;SDS011;48558;48.242;11.654;2023-07-31T21:42:48;4.90;;;2.22;;
62509;SDS011;48558;48.242;11.654;2023-07-31T21:47:01;3.13;;;2.78;;
62509;SDS011;48558;48.242;11.654;2023-07-31T21:51:14;2.40;;;2.00;;
62509;SDS011;48558;48.242;11.654;2023-07-31T21:55:26;4.65;;;2.40;;
62509;SDS011;48558;48.242;11.654;2023-07-31T21:59:40;3.92;;;2.50;;
62509;SDS011;48558;48.242;11.654;2023-07-31T22:03:53;2.90;;;2.25;;
62509;SDS011;48558;48.242;11.654;2023-07-31T22:08:05;4.88;;;2.30;;
62509;SDS011;48558;48.242;11.654;2023-07-31T22:12:18;5.75;;;2.47;;
62509;SDS011;48558;48.242;11.654;2023-07-31T22:16:31;2.90;;;2.33;;
62509;SDS011;48558;48.242;11.654;2023-07-31T22:20:49;3.22;;;2.50;;
62509;SDS011;48558;48.242;11.654;2023-07-31T22:25:02;3.30;;;2.42;;
62509;SDS011;48558;48.242;11.654;2023-07-31T22:29:15;2.85;;;2.22;;
62509;SDS011;48558;48.242;11.654;2023-07-31T22:33:28;2.65;;;2.35;;
62509;SDS011;48558;48.242;11.654;2023-07-31T22:37:40;2.22;;;2.10;;
62509;SDS011;48558;48.242;11.654;2023-07-31T22:41:53;2.83;;;2.55;;
62509;SDS011;48558;48.242;11.654;2023-07-31T22:46:05;4.25;;;2.35;;
62509;SDS011;48558;48.242;11.654;2023-07-31T22:50:18;4.57;;;2.03;;
62509;SDS011;48558;48.242;11.654;2023-07-31T22:54:30;3.45;;;2.30;;
62509;SDS011;48558;48.242;11.654;2023-07-31T22:58:43;3.92;;;2.67;;
62509;SDS011;48558;48.242;11.654;2023-07-31T23:02:55;3.28;;;2.47;;
62509;SDS011;48558;48.242;11.654;2023-07-31T23:07:08;3.35;;;2.03;;
62509;SDS011;48558;48.242;11.654;2023-07-31T23:11:20;3.65;;;2.05;;
62509;SDS011;48558;48.242;11.654;2023-07-31T23:15:33;5.45;;;2.20;;
62509;SDS011;48558;48.242;11.654;2023-07-31T23:19:47;3.97;;;2.30;;
62509;SDS011;48558;48.242;11.654;2023-07-31T23:24:00;6.95;;;2.33;;
62509;SDS011;48558;48.242;11.654;2023-07-31T23:28:12;3.70;;;2.50;;
62509;SDS011;48558;48.242;11.654;2023-07-31T23:32:25;2.72;;;2.50;;
62509;SDS011;48558;48.242;11.654;2023-07-31T23:36:38;4.90;;;2.30;;
62509;SDS011;48558;48.242;11.654;2023-07-31T23:40:51;2.88;;;2.42;;
62509;SDS011;48558;48.242;11.654;2023-07-31T23:45:04;4.60;;;2.28;;
62509;SDS011;48558;48.242;11.654;2023-07-31T23:49:21;3.45;;;2.30;;
62509;SDS011;48558;48.242;11.654;2023-07-31T23:53:34;3.88;;;2.50;;
62509;SDS011;48558;48.242;11.654;2023-07-31T23:57:47;3.03;;;2.30;;
